createdAt,value
2022-08-12T00:02:45.194Z,3.22
2022-08-12T00:05:32.017Z,3.53
2022-08-12T00:08:17.250Z,3.28
2022-08-12T00:11:16.854Z,3.10
2022-08-12T00:14:02.421Z,3.33
2022-08-12T00:16:48.845Z,3.30
2022-08-12T00:19:34.348Z,3.60
2022-08-12T00:22:20.135Z,4.22
2022-08-12T00:25:06.278Z,4.75
2022-08-12T00:27:52.213Z,4.45
2022-08-12T00:30:37.653Z,3.78
2022-08-12T00:33:22.846Z,3.33
2022-08-12T00:36:32.222Z,3.13
2022-08-12T00:39:19.375Z,3.38
2022-08-12T00:42:05.726Z,4.93
2022-08-12T00:44:32.531Z,3.60
2022-08-12T00:47:02.172Z,3.47
2022-08-12T00:49:31.073Z,4.90
2022-08-12T00:52:06.926Z,4.00
2022-08-12T00:54:37.042Z,3.47
2022-08-12T00:57:11.161Z,4.10
2022-08-12T00:59:47.822Z,3.92
2022-08-12T01:02:25.227Z,3.80
2022-08-12T01:05:32.917Z,4.32
2022-08-12T01:08:18.657Z,3.55
2022-08-12T01:11:05.448Z,3.67
2022-08-12T01:13:34.570Z,3.75
2022-08-12T01:16:04.049Z,3.28
2022-08-12T01:18:33.219Z,3.70
2022-08-12T01:21:09.108Z,3.85
2022-08-12T01:24:28.879Z,3.45
2022-08-12T01:26:59.385Z,3.88
2022-08-12T01:29:33.222Z,4.13
2022-08-12T01:32:05.502Z,5.82
2022-08-12T01:34:37.512Z,3.35
2022-08-12T01:37:07.680Z,3.83
2022-08-12T01:40:35.836Z,3.35
2022-08-12T01:42:41.972Z,3.08
2022-08-12T01:45:10.049Z,4.28
2022-08-12T01:48:00.811Z,3.38
2022-08-12T01:51:00.373Z,2.85
2022-08-12T01:53:50.745Z,3.05
2022-08-12T01:56:22.094Z,2.97
2022-08-12T01:59:12.135Z,3.08
2022-08-12T02:01:40.287Z,3.05
2022-08-12T02:04:55.186Z,3.22
2022-08-12T02:07:52.556Z,4.28
2022-08-12T02:11:04.226Z,3.10
2022-08-12T02:13:50.640Z,2.40
2022-08-12T02:16:46.511Z,2.80
2022-08-12T02:19:47.242Z,3.03
2022-08-12T02:22:30.028Z,3.17
2022-08-12T02:25:03.835Z,3.45
2022-08-12T02:27:39.486Z,2.55
2022-08-12T02:30:19.419Z,2.65
2022-08-12T02:32:49.592Z,2.88
2022-08-12T02:35:23.013Z,2.65
2022-08-12T02:37:56.199Z,2.58
2022-08-12T02:40:24.401Z,2.40
2022-08-12T02:43:14.169Z,2.90
2022-08-12T02:45:56.790Z,3.83
2022-08-12T02:48:34.026Z,2.30
2022-08-12T02:51:09.362Z,2.63
2022-08-12T02:53:39.690Z,2.97
2022-08-12T02:56:07.535Z,2.83
2022-08-12T02:58:36.028Z,2.97
2022-08-12T03:01:12.898Z,2.78
2022-08-12T03:03:41.311Z,2.67
2022-08-12T03:06:17.523Z,2.60
2022-08-12T03:08:51.832Z,2.90
2022-08-12T03:11:41.665Z,2.78
2022-08-12T03:14:15.136Z,2.67
2022-08-12T03:16:44.553Z,2.90
2022-08-12T03:19:11.502Z,2.88
2022-08-12T03:21:55.708Z,2.63
2022-08-12T03:24:27.532Z,2.55
2022-08-12T03:27:00.471Z,2.88
2022-08-12T03:29:31.060Z,3.15
2022-08-12T03:32:02.767Z,2.95
2022-08-12T03:34:35.383Z,3.25
2022-08-12T03:37:04.151Z,2.72
2022-08-12T03:39:38.425Z,2.80
2022-08-12T03:42:14.418Z,2.85
2022-08-12T03:45:11.636Z,2.65
2022-08-12T03:48:09.610Z,3.22
2022-08-12T03:50:55.851Z,3.83
2022-08-12T03:53:45.291Z,2.63
2022-08-12T03:56:31.307Z,2.97
2022-08-12T03:59:19.079Z,3.00
2022-08-12T04:01:57.862Z,2.70
2022-08-12T04:04:34.237Z,2.65
2022-08-12T04:07:09.467Z,2.47
2022-08-12T04:09:42.603Z,2.30
2022-08-12T04:12:32.736Z,3.13
2022-08-12T04:15:00.669Z,2.42
2022-08-12T04:17:28.794Z,2.75
2022-08-12T04:19:59.080Z,3.20
2022-08-12T04:22:30.804Z,2.40
2022-08-12T04:25:01.347Z,3.00
2022-08-12T04:27:30.127Z,2.75
2022-08-12T04:30:17.097Z,3.03
2022-08-12T04:32:48.297Z,2.63
2022-08-12T04:35:16.315Z,2.25
2022-08-12T04:37:58.759Z,2.65
2022-08-12T04:40:32.084Z,2.80
2022-08-12T04:43:01.339Z,2.67
2022-08-12T04:45:31.566Z,2.47
2022-08-12T04:47:58.419Z,2.67
2022-08-12T04:50:35.296Z,2.50
2022-08-12T04:53:08.213Z,3.13
2022-08-12T04:55:38.796Z,2.90
2022-08-12T04:58:09.090Z,3.20
2022-08-12T05:00:36.953Z,2.90
2022-08-12T05:03:06.126Z,2.45
2022-08-12T05:05:36.274Z,2.65
2022-08-12T05:08:04.623Z,2.45
2022-08-12T05:10:33.482Z,2.92
2022-08-12T05:13:07.340Z,2.90
2022-08-12T05:15:36.019Z,3.22
2022-08-12T05:18:19.015Z,3.03
2022-08-12T05:20:48.420Z,3.00
2022-08-12T05:23:17.765Z,2.72
2022-08-12T05:25:45.997Z,3.22
2022-08-12T05:28:14.369Z,2.70
2022-08-12T05:30:42.717Z,3.15
2022-08-12T05:33:11.307Z,2.90
2022-08-12T05:35:40.277Z,2.90
2022-08-12T05:38:27.992Z,2.97
2022-08-12T05:40:55.769Z,2.67
2022-08-12T05:43:24.868Z,2.80
2022-08-12T05:45:51.542Z,3.20
2022-08-12T05:48:18.381Z,2.47
2022-08-12T05:50:46.662Z,2.33
2022-08-12T05:53:13.501Z,2.60
2022-08-12T05:55:41.174Z,3.85
2022-08-12T05:58:08.215Z,2.95
2022-08-12T06:00:36.061Z,2.47
2022-08-12T06:03:04.845Z,2.95
2022-08-12T06:05:43.045Z,2.65
2022-08-12T06:08:21.446Z,2.90
2022-08-12T06:10:50.395Z,3.33
2022-08-12T06:13:28.442Z,3.25
2022-08-12T06:16:09.928Z,2.47
2022-08-12T06:18:40.766Z,2.40
2022-08-12T06:21:13.613Z,2.22
2022-08-12T06:23:42.819Z,3.28
2022-08-12T06:26:11.670Z,2.50
2022-08-12T06:28:45.897Z,2.70
2022-08-12T06:31:32.182Z,2.55
2022-08-12T06:35:25.566Z,3.38
2022-08-12T06:36:50.035Z,3.38
2022-08-12T06:39:17.499Z,2.30
2022-08-12T06:42:31.918Z,2.33
2022-08-12T06:44:50.595Z,2.53
2022-08-12T06:47:19.536Z,2.78
2022-08-12T06:49:46.519Z,3.13
2022-08-12T06:52:13.159Z,2.22
2022-08-12T06:54:42.903Z,2.42
2022-08-12T06:58:04.436Z,2.28
2022-08-12T06:59:56.756Z,2.88
2022-08-12T07:02:23.460Z,3.00
2022-08-12T07:04:50.223Z,2.47
2022-08-12T07:07:18.481Z,1.83
2022-08-12T07:10:04.805Z,2.83
2022-08-12T07:12:33.528Z,2.25
2022-08-12T07:15:01.972Z,2.08
2022-08-12T07:17:36.221Z,2.10
2022-08-12T07:20:13.719Z,2.53
2022-08-12T07:22:57.591Z,2.20
2022-08-12T07:25:41.127Z,2.50
2022-08-12T07:28:16.314Z,2.03
2022-08-12T07:30:45.400Z,1.92
2022-08-12T07:33:14.036Z,2.30
2022-08-12T07:35:47.952Z,2.35
2022-08-12T07:38:30.540Z,2.40
2022-08-12T07:41:07.288Z,2.28
2022-08-12T07:43:36.690Z,2.30
2022-08-12T07:46:08.390Z,2.58
2022-08-12T07:48:41.177Z,2.45
2022-08-12T07:51:08.869Z,2.00
2022-08-12T07:53:59.907Z,2.67
2022-08-12T07:56:25.055Z,2.13
2022-08-12T07:58:52.039Z,2.22
2022-08-12T08:01:21.533Z,2.03
2022-08-12T08:04:16.483Z,2.22
2022-08-12T08:06:45.717Z,1.50
2022-08-12T08:09:14.921Z,1.90
2022-08-12T08:12:00.368Z,3.05
2022-08-12T08:14:29.518Z,1.55
2022-08-12T08:16:58.933Z,2.40
2022-08-12T08:19:27.073Z,2.13
2022-08-12T08:21:55.045Z,2.13
2022-08-12T08:24:28.067Z,1.48
2022-08-12T08:26:58.721Z,1.77
2022-08-12T08:29:26.169Z,1.55
2022-08-12T08:32:00.234Z,2.80
2022-08-12T08:34:52.929Z,1.42
2022-08-12T08:37:17.059Z,2.00
2022-08-12T08:39:44.302Z,1.58
2022-08-12T08:42:29.395Z,1.95
2022-08-12T08:44:58.833Z,1.80
2022-08-12T08:47:26.089Z,1.75
2022-08-12T08:49:54.812Z,2.22
2022-08-12T08:52:40.074Z,1.02
2022-08-12T08:55:20.893Z,2.03
2022-08-12T08:57:54.481Z,2.05
2022-08-12T09:00:21.861Z,1.25
2022-08-12T09:02:58.814Z,1.60
2022-08-12T09:05:27.726Z,1.67
2022-08-12T09:08:08.758Z,0.93
2022-08-12T09:10:45.940Z,1.38
2022-08-12T09:13:29.121Z,1.35
2022-08-12T09:16:15.005Z,1.25
2022-08-12T09:18:43.609Z,1.13
2022-08-12T09:21:11.713Z,0.88
2022-08-12T09:29:14.233Z,0.90
2022-08-12T09:32:06.462Z,1.67
2022-08-12T09:34:33.476Z,0.98
2022-08-12T09:37:18.864Z,1.05
2022-08-12T09:40:05.030Z,0.93
2022-08-12T09:43:15.410Z,2.28
2022-08-12T09:46:20.004Z,1.52
2022-08-12T09:48:35.065Z,1.05
2022-08-12T09:51:16.598Z,1.17
2022-08-12T09:54:09.226Z,1.15
2022-08-12T09:56:59.994Z,1.33
2022-08-12T10:00:13.818Z,0.90
2022-08-12T10:02:44.566Z,1.13
2022-08-12T10:04:59.614Z,1.48
2022-08-12T10:07:31.025Z,0.90
2022-08-12T10:10:08.114Z,0.88
2022-08-12T10:13:12.126Z,1.35
2022-08-12T10:16:00.946Z,1.00
2022-08-12T10:18:32.627Z,1.00
2022-08-12T10:23:39.803Z,0.90
2022-08-12T10:26:38.575Z,0.80
2022-08-12T10:30:41.035Z,0.80
2022-08-12T10:33:02.248Z,0.70
2022-08-12T10:35:10.553Z,1.40
2022-08-12T10:38:39.320Z,0.93
2022-08-12T10:40:31.370Z,1.02
2022-08-12T10:43:18.589Z,0.85
2022-08-12T10:45:47.217Z,1.63
2022-08-12T10:48:21.555Z,0.93
2022-08-12T10:51:02.504Z,1.10
2022-08-12T10:53:43.984Z,0.90
2022-08-12T10:56:16.131Z,1.17
2022-08-12T10:58:46.193Z,0.93
2022-08-12T11:04:18.620Z,0.82
2022-08-12T11:07:05.008Z,1.00
2022-08-12T11:09:56.232Z,0.85
2022-08-12T11:12:57.217Z,1.00
2022-08-12T11:15:20.660Z,0.90
2022-08-12T11:17:53.866Z,1.52
2022-08-12T11:20:30.959Z,0.90
2022-08-12T11:23:36.552Z,0.75
2022-08-12T11:25:58.246Z,1.30
2022-08-12T11:28:34.152Z,1.10
2022-08-12T11:31:06.185Z,0.95
2022-08-12T11:34:05.277Z,1.25
2022-08-12T11:36:22.045Z,1.10
2022-08-12T11:38:51.320Z,1.08
2022-08-12T11:41:28.022Z,0.88
2022-08-12T11:44:12.641Z,0.90
2022-08-12T11:46:51.441Z,0.90
2022-08-12T11:49:31.230Z,0.90
2022-08-12T11:52:03.795Z,0.82
2022-08-12T11:54:31.602Z,1.15
2022-08-12T11:57:02.218Z,0.80
2022-08-12T12:02:20.713Z,1.30
2022-08-12T12:04:52.159Z,1.15
2022-08-12T12:07:19.168Z,1.17
2022-08-12T12:09:53.579Z,0.90
2022-08-12T12:12:23.215Z,1.02
2022-08-12T12:14:55.077Z,1.30
2022-08-12T12:17:25.068Z,0.95
2022-08-12T12:19:53.267Z,1.27
2022-08-12T12:22:23.707Z,0.88
2022-08-12T12:24:54.324Z,1.02
2022-08-12T12:27:39.320Z,0.85
2022-08-12T12:30:25.652Z,1.15
2022-08-12T12:32:56.915Z,2.20
2022-08-12T12:36:18.497Z,1.10
2022-08-12T12:38:12.562Z,0.90
2022-08-12T12:40:43.869Z,1.40
2022-08-12T12:43:12.016Z,1.10
2022-08-12T12:45:44.349Z,1.10
2022-08-12T12:48:14.031Z,0.80
2022-08-12T12:50:45.580Z,0.88
2022-08-12T12:54:05.294Z,1.10
2022-08-12T12:56:21.128Z,0.80
2022-08-12T12:59:02.719Z,0.90
2022-08-12T13:01:30.892Z,1.00
2022-08-12T13:04:02.519Z,0.93
2022-08-12T13:06:31.464Z,1.00
2022-08-12T13:09:03.804Z,1.20
2022-08-12T13:11:41.811Z,0.95
2022-08-12T13:14:29.621Z,1.00
2022-08-12T13:17:02.754Z,0.93
2022-08-12T13:19:46.799Z,1.33
2022-08-12T13:22:19.914Z,1.27
2022-08-12T13:24:55.817Z,1.33
2022-08-12T13:27:36.363Z,1.17
2022-08-12T13:30:06.954Z,0.85
2022-08-12T13:32:38.513Z,0.88
2022-08-12T13:35:20.328Z,0.90
2022-08-12T13:37:55.735Z,0.93
2022-08-12T13:40:28.266Z,1.70
2022-08-12T13:42:58.912Z,1.35
2022-08-12T13:45:27.121Z,1.20
2022-08-12T13:48:02.933Z,1.30
2022-08-12T13:50:41.212Z,1.60
2022-08-12T13:53:26.177Z,1.48
2022-08-12T13:56:03.430Z,1.63
2022-08-12T13:58:32.873Z,1.13
2022-08-12T14:01:04.685Z,1.10
2022-08-12T14:03:50.263Z,1.42
2022-08-12T14:06:18.371Z,1.50
2022-08-12T14:08:45.404Z,1.80
2022-08-12T14:11:16.638Z,1.70
2022-08-12T14:14:05.386Z,1.90
2022-08-12T14:16:37.683Z,1.85
2022-08-12T14:19:24.836Z,1.95
2022-08-12T14:22:00.655Z,1.98
2022-08-12T14:24:35.555Z,1.73
2022-08-12T14:27:03.843Z,2.50
2022-08-12T14:29:57.069Z,1.88
2022-08-12T14:32:23.596Z,2.28
2022-08-12T14:34:51.687Z,3.42
2022-08-12T14:37:55.574Z,1.80
2022-08-12T14:40:06.754Z,1.83
2022-08-12T14:42:33.412Z,2.08
2022-08-12T14:45:01.423Z,1.90
2022-08-12T14:47:35.078Z,1.20
2022-08-12T14:50:37.564Z,1.45
2022-08-12T14:58:32.057Z,1.10
2022-08-12T15:01:21.317Z,1.60
2022-08-12T15:03:57.811Z,2.63
2022-08-12T15:06:44.321Z,1.45
2022-08-12T15:09:14.989Z,1.13
2022-08-12T15:11:54.944Z,1.40
2022-08-12T15:14:27.396Z,1.35
2022-08-12T15:16:54.471Z,1.40
2022-08-12T15:20:22.405Z,1.48
2022-08-12T15:22:38.685Z,6.28
2022-08-12T15:24:54.919Z,2.08
2022-08-12T15:27:22.202Z,4.70
2022-08-12T15:29:58.190Z,1.95
2022-08-12T15:32:31.981Z,1.30
2022-08-12T15:35:00.747Z,1.48
2022-08-12T15:38:10.475Z,1.65
2022-08-12T15:40:30.408Z,1.58
2022-08-12T15:43:01.357Z,1.70
2022-08-12T15:45:31.973Z,1.50
2022-08-12T15:48:16.357Z,1.60
2022-08-12T15:50:45.614Z,1.38
2022-08-12T15:53:37.711Z,1.45
2022-08-12T15:56:12.655Z,1.30
2022-08-12T15:58:41.483Z,1.30
2022-08-12T16:01:15.126Z,1.38
2022-08-12T16:03:59.223Z,1.73
2022-08-12T16:06:52.127Z,1.63
2022-08-12T16:09:21.411Z,1.95
2022-08-12T16:11:48.638Z,1.50
2022-08-12T16:14:16.201Z,1.45
2022-08-12T16:16:43.157Z,1.30
2022-08-12T16:20:02.803Z,1.30
2022-08-12T16:22:11.323Z,1.42
2022-08-12T16:24:46.057Z,1.85
2022-08-12T16:27:38.635Z,1.30
2022-08-12T16:30:06.037Z,2.08
2022-08-12T16:32:36.821Z,2.05
2022-08-12T16:35:16.088Z,1.60
2022-08-12T16:38:24.384Z,1.80
2022-08-12T16:40:32.879Z,1.35
2022-08-12T16:43:13.328Z,1.95
2022-08-12T16:46:23.285Z,1.93
2022-08-12T16:48:34.696Z,2.00
2022-08-12T16:51:05.895Z,1.70
2022-08-12T16:53:43.812Z,1.70
2022-08-12T16:56:14.904Z,2.70
2022-08-12T16:58:42.215Z,2.00
2022-08-12T17:01:13.883Z,1.88
2022-08-12T17:03:52.193Z,2.33
2022-08-12T17:06:22.616Z,1.90
2022-08-12T17:09:02.485Z,1.88
2022-08-12T17:11:32.710Z,2.40
2022-08-12T17:14:00.031Z,1.83
2022-08-12T17:16:30.296Z,3.53
2022-08-12T17:18:59.599Z,2.78
2022-08-12T17:21:40.959Z,2.40
2022-08-12T17:24:21.648Z,2.58
2022-08-12T17:26:56.184Z,3.47
2022-08-12T17:32:11.090Z,1.95
2022-08-12T17:34:56.735Z,1.83
2022-08-12T17:37:23.588Z,1.80
2022-08-12T17:40:13.562Z,1.60
2022-08-12T17:42:47.662Z,1.38
2022-08-12T17:45:19.363Z,2.63
2022-08-12T17:48:04.911Z,1.83
2022-08-12T17:50:44.651Z,1.50
2022-08-12T17:53:16.109Z,1.50
2022-08-12T17:55:50.270Z,2.17
2022-08-12T17:58:38.043Z,2.20
2022-08-12T18:01:06.119Z,2.33
2022-08-12T18:03:57.994Z,2.17
2022-08-12T18:06:28.231Z,1.67
2022-08-12T18:08:59.148Z,1.33
2022-08-12T18:12:05.926Z,1.73
2022-08-12T18:14:37.005Z,1.80
2022-08-12T18:17:08.183Z,1.80
2022-08-12T18:20:05.224Z,2.00
2022-08-12T18:22:39.417Z,2.78
2022-08-12T18:26:12.691Z,1.70
2022-08-12T18:28:15.553Z,1.40
2022-08-12T18:30:52.351Z,2.10
2022-08-12T18:33:23.879Z,2.65
2022-08-12T18:35:53.840Z,2.17
2022-08-12T18:38:25.259Z,2.88
2022-08-12T18:41:21.937Z,2.70
2022-08-12T18:44:02.724Z,2.20
2022-08-12T18:46:47.330Z,1.95
2022-08-12T18:49:30.690Z,2.40
2022-08-12T18:52:04.809Z,2.75
2022-08-12T18:54:35.339Z,2.55
2022-08-12T18:57:16.370Z,4.00
2022-08-12T19:00:01.852Z,1.90
2022-08-12T19:02:36.359Z,2.08
2022-08-12T19:05:09.933Z,3.17
2022-08-12T19:07:49.247Z,4.25
2022-08-12T19:10:28.584Z,2.73
2022-08-12T19:13:23.456Z,2.55
2022-08-12T19:15:57.438Z,2.70
2022-08-12T19:18:29.940Z,3.38
2022-08-12T19:21:06.426Z,2.85
2022-08-12T19:23:39.314Z,3.00
2022-08-12T19:26:10.734Z,4.10
2022-08-12T19:28:40.622Z,2.90
2022-08-12T19:31:45.033Z,3.28
2022-08-12T19:37:22.674Z,2.05
2022-08-12T19:40:09.950Z,2.35
2022-08-12T19:42:44.958Z,2.72
2022-08-12T19:45:19.952Z,3.10
2022-08-12T19:47:50.971Z,2.40
2022-08-12T19:50:20.084Z,1.88
2022-08-12T19:52:51.216Z,2.63
2022-08-12T19:55:21.297Z,3.65
2022-08-12T19:58:01.778Z,2.55
2022-08-12T20:00:34.989Z,2.30
2022-08-12T20:03:04.342Z,1.90
2022-08-12T20:06:08.192Z,1.60
2022-08-12T20:08:27.922Z,1.33
2022-08-12T20:12:09.029Z,1.30
2022-08-12T20:14:01.109Z,1.50
2022-08-12T20:16:53.066Z,1.48
2022-08-12T20:19:52.364Z,1.50
2022-08-12T20:22:23.435Z,1.40
2022-08-12T20:24:55.269Z,1.67
2022-08-12T20:27:29.783Z,1.52
2022-08-12T20:30:13.878Z,1.95
2022-08-12T20:33:01.015Z,1.88
2022-08-12T20:35:38.913Z,1.65
2022-08-12T20:38:27.467Z,1.92
2022-08-12T20:40:56.028Z,3.72
2022-08-12T20:43:28.296Z,2.05
2022-08-12T20:45:58.834Z,2.40
2022-08-12T20:48:29.375Z,2.72
2022-08-12T20:51:04.311Z,3.40
2022-08-12T20:53:58.036Z,2.92
2022-08-12T20:56:30.602Z,2.45
2022-08-12T20:59:01.186Z,2.58
2022-08-12T21:01:46.034Z,1.92
2022-08-12T21:04:32.776Z,1.80
2022-08-12T21:07:08.467Z,1.60
2022-08-12T21:09:50.363Z,2.50
2022-08-12T21:12:28.735Z,2.17
2022-08-12T21:15:23.078Z,2.17
2022-08-12T21:18:11.117Z,2.05
2022-08-12T21:20:50.706Z,1.70
2022-08-12T21:23:19.263Z,1.77
2022-08-12T21:25:49.170Z,1.92
2022-08-12T21:28:20.799Z,2.45
2022-08-12T21:31:10.642Z,2.50
2022-08-12T21:33:58.261Z,2.63
2022-08-12T21:36:34.185Z,2.63
2022-08-12T21:39:18.846Z,3.08
2022-08-12T21:41:50.278Z,2.55
2022-08-12T21:44:32.609Z,2.45
2022-08-12T21:47:21.796Z,3.15
2022-08-12T21:50:06.473Z,2.70
2022-08-12T21:52:40.403Z,3.85
2022-08-12T21:55:18.536Z,3.38
2022-08-12T21:57:51.046Z,2.92
2022-08-12T22:00:33.435Z,3.17
2022-08-12T22:04:03.772Z,3.22
2022-08-12T22:06:25.929Z,2.97
2022-08-12T22:09:04.029Z,2.90
2022-08-12T22:11:42.333Z,3.22
2022-08-12T22:14:21.796Z,2.85
2022-08-12T22:16:53.254Z,2.58
2022-08-12T22:19:21.036Z,3.17
2022-08-12T22:21:53.453Z,3.15
2022-08-12T22:24:26.568Z,2.72
2022-08-12T22:27:14.535Z,3.20
2022-08-12T22:30:09.456Z,2.60
2022-08-12T22:32:50.494Z,3.10
2022-08-12T22:35:56.393Z,2.80
2022-08-12T22:38:26.358Z,2.13
2022-08-12T22:41:02.092Z,2.40
2022-08-12T22:43:59.563Z,2.22
2022-08-12T22:46:52.651Z,2.08
2022-08-12T22:49:36.349Z,2.13
2022-08-12T22:52:18.665Z,2.10
2022-08-12T22:55:03.225Z,2.20
2022-08-12T22:57:49.105Z,1.98
2022-08-12T23:00:24.479Z,2.33
2022-08-12T23:03:03.794Z,1.90
2022-08-12T23:05:57.095Z,1.85
2022-08-12T23:08:24.063Z,1.50
2022-08-12T23:10:59.168Z,1.70
2022-08-12T23:13:47.347Z,2.65
2022-08-12T23:16:18.342Z,2.35
2022-08-12T23:19:10.428Z,2.00
2022-08-12T23:22:06.683Z,2.00
2022-08-12T23:24:56.302Z,1.95
2022-08-12T23:27:52.336Z,1.80
2022-08-12T23:30:31.271Z,1.98
2022-08-12T23:33:00.740Z,2.47
2022-08-12T23:35:45.799Z,1.73
2022-08-12T23:38:24.639Z,2.25
2022-08-12T23:41:00.664Z,1.83
2022-08-12T23:43:39.447Z,1.80
2022-08-12T23:46:19.287Z,1.88
2022-08-12T23:48:47.896Z,1.70
2022-08-12T23:51:23.486Z,1.63
2022-08-12T23:54:02.039Z,1.50
2022-08-12T23:56:34.005Z,1.60
2022-08-12T23:59:06.080Z,1.85
